Plumtree, North Carolina
Current Conditions -  °F | °C
As of 4:15 PM on Monday 22 Dec 2014 (Local Time) from KTNB Reporting Station
Haze Haze  
Wind Chill: 33°   Ceiling: 300
Heat Index: 37°   Visibility: 2.5mi
Dew Point: 37°   Wind: 5mph
Humidity: 100%   Direction: 120°ESE
Pressure: 29.98"   Gusts: NA
Location:  36.03°N, 82.01°W
Report Text: KTNB 222115Z AUTO 12004KT 2 1/2SM BR OVC003 03/03 A2998 RMK AO2 VIS 1 1/2V4 LTG DSNT SW T00250025
Loading
Personal Weather Stations






























Interactive Weather Map New forecast layout! Learn more

10-Day Weather Forecast

Advertisements
Track Severe Weather on mobile